B. John Yeager — WDB8150 — position and weather

sailwx.info

Track history (hours):
 
Tides and Currents Weather Stations Pressure Air Temp Water Temp Dewpoint Dewpoint Depression Visibility Wind Speed Wind Dir Waves Ship Positions

B. John Yeager

Owner: INGRAM BARGE COMPANY, Nashville, TN. More information available from US FCC via Universal Licensing System and Coast Guard Vessel Documentation Center.

Last reported at 2015-Apr-25 02:32 UTC. Time now 2015-Apr-27 22:18 UTC.
Position N 30°45' W 091°23'.

Length 54 m; draft 3.7 m.

Type: Tow > 200 m length. MMSI: 366953860.

Date/timePositionNaut miles runAvg speedWind from/ knotsBaromVisibWave heightAir tempDewpointWater temp
2015-Apr-25 02:32N 30°45' W 091°23'4 3.8
2015-Apr-25 01:33N 30°42' W 091°21'4 3.8
2015-Apr-25 00:33N 30°39' W 091°18'4 3.8
2015-Apr-24 23:33N 30°35' W 091°19'4 3.6
2015-Apr-24 22:34N 30°34' W 091°15'3 2.7
2015-Apr-24 21:33N 30°31' W 091°16'1 1.4
2015-Apr-24 20:33N 30°31' W 091°15'3 2.7
2015-Apr-24 19:33N 30°31' W 091°12'3 3.2
2015-Apr-24 18:34N 30°27' W 091°12'0 0.5
2015-Apr-24 17:33N 30°27' W 091°12'0 0.0
2015-Apr-24 16:33N 30°27' W 091°12'0 0.0
2015-Apr-24 15:33N 30°27' W 091°12'0 0.0
2015-Apr-24 14:34N 30°27' W 091°12'2 1.6
2015-Apr-24 13:33N 30°25' W 091°12'3 3.2
2015-Apr-24 12:34N 30°23' W 091°14'3 2.5
2015-Apr-24 11:32N 30°20' W 091°13'3 3.4
2015-Apr-24 10:33N 30°20' W 091°09'2 2.1
2015-Apr-24 09:24N 30°19' W 091°11'4 1.7
2015-Apr-24 07:16N 30°16' W 091°08'2 3.2
2015-Apr-24 06:32N 30°15' W 091°07'3 2.6
2015-Apr-24 05:32N 30°13' W 091°09'54 1.6
2015-Apr-22 19:05N 29°57' W 090°09'1 1.8
2015-Apr-22 18:22N 29°56' W 090°08'3 3.8
2015-Apr-22 17:33N 29°55' W 090°05'2 2.4
2015-Apr-22 16:33N 29°57' W 090°03'0 0.0
2015-Apr-22 15:27N 29°57' W 090°03'1 0.7
2015-Apr-22 14:24N 29°57' W 090°03'2 2.7
2015-Apr-22 13:33N 29°57' W 090°01'4 3.8
2015-Apr-22 12:32N 29°55' W 089°57'1 0.2
2015-Apr-22 08:31N 29°55' W 089°56'2 0.1
2015-Apr-21 07:20N 29°55' W 089°58'5 6.7
2015-Apr-21 06:33N 29°55' W 090°04'2 1.5
2015-Apr-21 05:33N 29°54' W 090°05'0 0.0
2015-Apr-21 04:33N 29°54' W 090°05'0 0.0
2015-Apr-21 03:32N 29°54' W 090°05'0 0.0
2015-Apr-21 02:32N 29°54' W 090°05'0 0.0
2015-Apr-21 01:26N 29°54' W 090°05'0 0.0
2015-Apr-21 00:33N 29°54' W 090°05'0 0.0
2015-Apr-20 23:33N 29°54' W 090°05'0 0.0
2015-Apr-20 22:21N 29°54' W 090°05'0 0.2
2015-Apr-20 21:33N 29°54' W 090°05'0 0.0
2015-Apr-20 02:19N 29°54' W 090°05'0 0.0
2015-Apr-20 01:22N 29°54' W 090°05'0 0.0
2015-Apr-20 00:32N 29°54' W 090°05'0 0.0
2015-Apr-19 23:12N 29°54' W 090°05'0 0.0
2015-Apr-19 22:29N 29°54' W 090°05'0 0.0
2015-Apr-19 21:29N 29°54' W 090°05'0 0.0
2015-Apr-19 20:30N 29°54' W 090°05'0 0.0
2015-Apr-19 19:30N 29°54' W 090°05'0 0.0
2015-Apr-19 18:33N 29°54' W 090°05'0 0.0
2015-Apr-19 17:26N 29°54' W 090°05'0 0.0
2015-Apr-19 16:30N 29°54' W 090°05'0 0.0
2015-Apr-19 15:26N 29°54' W 090°05'0 0.0
2015-Apr-19 14:27N 29°54' W 090°05'0 0.0
2015-Apr-19 13:30N 29°54' W 090°05'0 0.0
2015-Apr-19 01:09N 29°54' W 090°05'0 0.0
2015-Apr-19 00:28N 29°54' W 090°05'0 0.0
2015-Apr-18 23:24N 29°54' W 090°05'0 0.0
2015-Apr-18 21:33N 29°54' W 090°05'0 0.0
2015-Apr-18 20:25N 29°54' W 090°05'0 0.0
2015-Apr-18 19:31N 29°54' W 090°05'0 0.0
2015-Apr-18 18:25N 29°54' W 090°05'0 0.0
2015-Apr-18 17:32N 29°54' W 090°05'0 0.0
2015-Apr-18 16:33N 29°54' W 090°05'0 0.0
2015-Apr-18 15:30N 29°54' W 090°05'0 0.0
2015-Apr-18 14:32N 29°54' W 090°05'0 0.0
2015-Apr-18 13:33N 29°54' W 090°05'0 0.0
2015-Apr-18 12:32N 29°54' W 090°05'0 0.0
2015-Apr-18 11:32N 29°54' W 090°05'0 0.0
2015-Apr-18 10:33N 29°54' W 090°05'0 0.0
2015-Apr-18 09:33N 29°54' W 090°05'0 0.0
2015-Apr-18 08:21N 29°54' W 090°05'0 0.0
2015-Apr-18 07:31N 29°54' W 090°05'  
Track history (hours):
 
Tides and Currents Weather Stations Pressure Air Temp Water Temp Dewpoint Dewpoint Depression Visibility Wind Speed Wind Dir Waves Ship Positions

B. John Yeager

Owner: INGRAM BARGE COMPANY, Nashville, TN. More information available from US FCC via Universal Licensing System and Coast Guard Vessel Documentation Center.

Last reported at 2015-Apr-25 02:32 UTC. Time now 2015-Apr-27 22:18 UTC.
Position N 30°45' W 091°23'.

Length 54 m; draft 3.7 m.

Type: Tow > 200 m length. MMSI: 366953860.

Date/timePositionNaut miles runAvg speedWind from/ knotsBaromVisibWave heightAir tempDewpointWater temp
2015-Apr-25 02:32N 30°45' W 091°23'4 3.8
2015-Apr-25 01:33N 30°42' W 091°21'4 3.8
2015-Apr-25 00:33N 30°39' W 091°18'4 3.8
2015-Apr-24 23:33N 30°35' W 091°19'4 3.6
2015-Apr-24 22:34N 30°34' W 091°15'3 2.7
2015-Apr-24 21:33N 30°31' W 091°16'1 1.4
2015-Apr-24 20:33N 30°31' W 091°15'3 2.7
2015-Apr-24 19:33N 30°31' W 091°12'3 3.2
2015-Apr-24 18:34N 30°27' W 091°12'0 0.5
2015-Apr-24 17:33N 30°27' W 091°12'0 0.0
2015-Apr-24 16:33N 30°27' W 091°12'0 0.0
2015-Apr-24 15:33N 30°27' W 091°12'0 0.0
2015-Apr-24 14:34N 30°27' W 091°12'2 1.6
2015-Apr-24 13:33N 30°25' W 091°12'3 3.2
2015-Apr-24 12:34N 30°23' W 091°14'3 2.5
2015-Apr-24 11:32N 30°20' W 091°13'3 3.4
2015-Apr-24 10:33N 30°20' W 091°09'2 2.1
2015-Apr-24 09:24N 30°19' W 091°11'4 1.7
2015-Apr-24 07:16N 30°16' W 091°08'2 3.2
2015-Apr-24 06:32N 30°15' W 091°07'3 2.6
2015-Apr-24 05:32N 30°13' W 091°09'54 1.6
2015-Apr-22 19:05N 29°57' W 090°09'1 1.8
2015-Apr-22 18:22N 29°56' W 090°08'3 3.8
2015-Apr-22 17:33N 29°55' W 090°05'2 2.4
2015-Apr-22 16:33N 29°57' W 090°03'0 0.0
2015-Apr-22 15:27N 29°57' W 090°03'1 0.7
2015-Apr-22 14:24N 29°57' W 090°03'2 2.7
2015-Apr-22 13:33N 29°57' W 090°01'4 3.8
2015-Apr-22 12:32N 29°55' W 089°57'1 0.2
2015-Apr-22 08:31N 29°55' W 089°56'2 0.1
2015-Apr-21 07:20N 29°55' W 089°58'5 6.7
2015-Apr-21 06:33N 29°55' W 090°04'2 1.5
2015-Apr-21 05:33N 29°54' W 090°05'0 0.0
2015-Apr-21 04:33N 29°54' W 090°05'0 0.0
2015-Apr-21 03:32N 29°54' W 090°05'0 0.0
2015-Apr-21 02:32N 29°54' W 090°05'0 0.0
2015-Apr-21 01:26N 29°54' W 090°05'0 0.0
2015-Apr-21 00:33N 29°54' W 090°05'0 0.0
2015-Apr-20 23:33N 29°54' W 090°05'0 0.0
2015-Apr-20 22:21N 29°54' W 090°05'0 0.2
2015-Apr-20 21:33N 29°54' W 090°05'0 0.0
2015-Apr-20 02:19N 29°54' W 090°05'0 0.0
2015-Apr-20 01:22N 29°54' W 090°05'0 0.0
2015-Apr-20 00:32N 29°54' W 090°05'0 0.0
2015-Apr-19 23:12N 29°54' W 090°05'0 0.0
2015-Apr-19 22:29N 29°54' W 090°05'0 0.0
2015-Apr-19 21:29N 29°54' W 090°05'0 0.0
2015-Apr-19 20:30N 29°54' W 090°05'0 0.0
2015-Apr-19 19:30N 29°54' W 090°05'0 0.0
2015-Apr-19 18:33N 29°54' W 090°05'0 0.0
2015-Apr-19 17:26N 29°54' W 090°05'0 0.0
2015-Apr-19 16:30N 29°54' W 090°05'0 0.0
2015-Apr-19 15:26N 29°54' W 090°05'0 0.0
2015-Apr-19 14:27N 29°54' W 090°05'0 0.0
2015-Apr-19 13:30N 29°54' W 090°05'0 0.0
2015-Apr-19 01:09N 29°54' W 090°05'0 0.0
2015-Apr-19 00:28N 29°54' W 090°05'0 0.0
2015-Apr-18 23:24N 29°54' W 090°05'0 0.0
2015-Apr-18 21:33N 29°54' W 090°05'0 0.0
2015-Apr-18 20:25N 29°54' W 090°05'0 0.0
2015-Apr-18 19:31N 29°54' W 090°05'0 0.0
2015-Apr-18 18:25N 29°54' W 090°05'0 0.0
2015-Apr-18 17:32N 29°54' W 090°05'0 0.0
2015-Apr-18 16:33N 29°54' W 090°05'0 0.0
2015-Apr-18 15:30N 29°54' W 090°05'0 0.0
2015-Apr-18 14:32N 29°54' W 090°05'0 0.0
2015-Apr-18 13:33N 29°54' W 090°05'0 0.0
2015-Apr-18 12:32N 29°54' W 090°05'0 0.0
2015-Apr-18 11:32N 29°54' W 090°05'0 0.0
2015-Apr-18 10:33N 29°54' W 090°05'0 0.0
2015-Apr-18 09:33N 29°54' W 090°05'0 0.0
2015-Apr-18 08:21N 29°54' W 090°05'0 0.0
2015-Apr-18 07:31N 29°54' W 090°05'  

Dump ship's entire track history